sensor_id;sensor_type;location;lat;lon;timestamp;temperature;humidity
4757;DHT22;2392;52.578;13.426;2023-09-12T00:02:05;20.40;99.90
4757;DHT22;2392;52.578;13.426;2023-09-12T00:04:34;20.30;99.90
4757;DHT22;2392;52.578;13.426;2023-09-12T00:07:01;20.30;99.90
4757;DHT22;2392;52.578;13.426;2023-09-12T00:09:31;20.30;99.90
4757;DHT22;2392;52.578;13.426;2023-09-12T00:11:58;20.30;99.90
4757;DHT22;2392;52.578;13.426;2023-09-12T00:14:25;20.30;99.90
4757;DHT22;2392;52.578;13.426;2023-09-12T00:16:53;20.30;99.90
4757;DHT22;2392;52.578;13.426;2023-09-12T00:19:21;20.30;99.90
4757;DHT22;2392;52.578;13.426;2023-09-12T00:21:49;20.20;99.90
4757;DHT22;2392;52.578;13.426;2023-09-12T00:24:18;20.20;99.90
4757;DHT22;2392;52.578;13.426;2023-09-12T00:26:45;20.20;99.90
4757;DHT22;2392;52.578;13.426;2023-09-12T00:29:12;20.20;99.90
4757;DHT22;2392;52.578;13.426;2023-09-12T00:31:39;20.20;99.90
4757;DHT22;2392;52.578;13.426;2023-09-12T00:34:06;20.20;99.90
4757;DHT22;2392;52.578;13.426;2023-09-12T00:36:33;20.20;99.90
4757;DHT22;2392;52.578;13.426;2023-09-12T00:39:04;20.20;99.90
4757;DHT22;2392;52.578;13.426;2023-09-12T00:41:31;20.20;99.90
4757;DHT22;2392;52.578;13.426;2023-09-12T00:43:58;20.20;99.90
4757;DHT22;2392;52.578;13.426;2023-09-12T00:46:25;20.20;99.90
4757;DHT22;2392;52.578;13.426;2023-09-12T00:48:53;20.20;99.90
4757;DHT22;2392;52.578;13.426;2023-09-12T00:51:22;20.10;99.90
4757;DHT22;2392;52.578;13.426;2023-09-12T00:53:50;20.10;99.90
4757;DHT22;2392;52.578;13.426;2023-09-12T00:56:21;20.10;99.90
4757;DHT22;2392;52.578;13.426;2023-09-12T00:58:48;20.10;99.90
4757;DHT22;2392;52.578;13.426;2023-09-12T01:01:18;20.00;99.90
4757;DHT22;2392;52.578;13.426;2023-09-12T01:03:45;19.90;99.90
4757;DHT22;2392;52.578;13.426;2023-09-12T01:06:21;19.90;99.90
4757;DHT22;2392;52.578;13.426;2023-09-12T01:08:49;19.90;99.90
4757;DHT22;2392;52.578;13.426;2023-09-12T01:11:17;19.90;99.90
4757;DHT22;2392;52.578;13.426;2023-09-12T01:13:45;19.90;99.90
4757;DHT22;2392;52.578;13.426;2023-09-12T01:16:12;19.90;99.90
4757;DHT22;2392;52.578;13.426;2023-09-12T01:18:39;19.90;99.90
4757;DHT22;2392;52.578;13.426;2023-09-12T01:21:32;19.90;99.90
4757;DHT22;2392;52.578;13.426;2023-09-12T01:27:13;19.90;99.90
4757;DHT22;2392;52.578;13.426;2023-09-12T01:29:43;19.90;99.90
4757;DHT22;2392;52.578;13.426;2023-09-12T01:32:10;19.90;99.90
4757;DHT22;2392;52.578;13.426;2023-09-12T01:34:38;19.90;99.90
4757;DHT22;2392;52.578;13.426;2023-09-12T01:37:05;19.90;99.90
4757;DHT22;2392;52.578;13.426;2023-09-12T01:39:32;19.90;99.90
4757;DHT22;2392;52.578;13.426;2023-09-12T01:41:59;19.90;99.90
4757;DHT22;2392;52.578;13.426;2023-09-12T01:44:29;19.80;99.90
4757;DHT22;2392;52.578;13.426;2023-09-12T01:47:00;19.80;99.90
4757;DHT22;2392;52.578;13.426;2023-09-12T01:49:30;19.70;99.90
4757;DHT22;2392;52.578;13.426;2023-09-12T01:51:58;19.70;99.90
4757;DHT22;2392;52.578;13.426;2023-09-12T01:54:26;19.70;99.90
4757;DHT22;2392;52.578;13.426;2023-09-12T01:56:54;19.70;99.90
4757;DHT22;2392;52.578;13.426;2023-09-12T01:59:23;19.70;99.90
4757;DHT22;2392;52.578;13.426;2023-09-12T02:01:52;19.70;99.90
4757;DHT22;2392;52.578;13.426;2023-09-12T02:04:19;19.60;99.90
4757;DHT22;2392;52.578;13.426;2023-09-12T02:06:46;19.60;99.90
4757;DHT22;2392;52.578;13.426;2023-09-12T02:09:13;19.60;99.90
4757;DHT22;2392;52.578;13.426;2023-09-12T02:11:42;19.50;99.90
4757;DHT22;2392;52.578;13.426;2023-09-12T02:14:09;19.50;99.90
4757;DHT22;2392;52.578;13.426;2023-09-12T02:16:45;19.50;99.90
4757;DHT22;2392;52.578;13.426;2023-09-12T02:19:13;19.60;99.90
4757;DHT22;2392;52.578;13.426;2023-09-12T02:21:40;19.60;99.90
4757;DHT22;2392;52.578;13.426;2023-09-12T02:24:08;19.60;99.90
4757;DHT22;2392;52.578;13.426;2023-09-12T02:26:35;19.60;99.90
4757;DHT22;2392;52.578;13.426;2023-09-12T02:29:03;19.50;99.90
4757;DHT22;2392;52.578;13.426;2023-09-12T02:31:31;19.50;99.90
4757;DHT22;2392;52.578;13.426;2023-09-12T02:33:58;19.50;99.90
4757;DHT22;2392;52.578;13.426;2023-09-12T02:36:28;19.50;99.90
4757;DHT22;2392;52.578;13.426;2023-09-12T02:38:55;19.50;99.90
4757;DHT22;2392;52.578;13.426;2023-09-12T02:41:22;19.40;99.90
4757;DHT22;2392;52.578;13.426;2023-09-12T02:43:49;19.30;99.90
4757;DHT22;2392;52.578;13.426;2023-09-12T02:46:19;19.20;99.90
4757;DHT22;2392;52.578;13.426;2023-09-12T02:48:46;19.10;99.90
4757;DHT22;2392;52.578;13.426;2023-09-12T02:51:13;19.00;99.90
4757;DHT22;2392;52.578;13.426;2023-09-12T02:53:42;19.00;99.90
4757;DHT22;2392;52.578;13.426;2023-09-12T02:56:09;18.90;99.90
4757;DHT22;2392;52.578;13.426;2023-09-12T02:58:36;18.90;99.90
4757;DHT22;2392;52.578;13.426;2023-09-12T03:01:03;18.80;99.90
4757;DHT22;2392;52.578;13.426;2023-09-12T03:03:32;18.80;99.90
4757;DHT22;2392;52.578;13.426;2023-09-12T03:06:01;18.70;99.90
4757;DHT22;2392;52.578;13.426;2023-09-12T03:08:29;18.60;99.90
4757;DHT22;2392;52.578;13.426;2023-09-12T03:10:58;18.60;99.90
4757;DHT22;2392;52.578;13.426;2023-09-12T03:13:27;18.50;99.90
4757;DHT22;2392;52.578;13.426;2023-09-12T03:15:54;18.50;99.90
4757;DHT22;2392;52.578;13.426;2023-09-12T03:18:21;18.50;99.90
4757;DHT22;2392;52.578;13.426;2023-09-12T03:20:54;18.50;99.90
4757;DHT22;2392;52.578;13.426;2023-09-12T03:23:31;18.50;99.90
4757;DHT22;2392;52.578;13.426;2023-09-12T03:26:02;18.50;99.90
4757;DHT22;2392;52.578;13.426;2023-09-12T03:28:30;18.50;99.90
4757;DHT22;2392;52.578;13.426;2023-09-12T03:31:03;18.50;99.90
4757;DHT22;2392;52.578;13.426;2023-09-12T03:33:30;18.60;99.90
4757;DHT22;2392;52.578;13.426;2023-09-12T03:35:57;18.60;99.90
4757;DHT22;2392;52.578;13.426;2023-09-12T03:38:25;18.60;99.90
4757;DHT22;2392;52.578;13.426;2023-09-12T03:40:52;18.60;99.90
4757;DHT22;2392;52.578;13.426;2023-09-12T03:43:20;18.70;99.90
4757;DHT22;2392;52.578;13.426;2023-09-12T03:45:48;18.70;99.90
4757;DHT22;2392;52.578;13.426;2023-09-12T03:48:15;18.70;99.90
4757;DHT22;2392;52.578;13.426;2023-09-12T03:50:42;18.70;99.90
4757;DHT22;2392;52.578;13.426;2023-09-12T03:53:09;18.60;99.90
4757;DHT22;2392;52.578;13.426;2023-09-12T03:55:36;18.60;99.90
4757;DHT22;2392;52.578;13.426;2023-09-12T03:58:03;18.60;99.90
4757;DHT22;2392;52.578;13.426;2023-09-12T04:00:32;18.50;99.90
4757;DHT22;2392;52.578;13.426;2023-09-12T04:02:59;18.40;99.90
4757;DHT22;2392;52.578;13.426;2023-09-12T04:05:26;18.40;99.90
4757;DHT22;2392;52.578;13.426;2023-09-12T04:07:53;18.40;99.90
4757;DHT22;2392;52.578;13.426;2023-09-12T04:10:21;18.40;99.90
4757;DHT22;2392;52.578;13.426;2023-09-12T04:12:48;18.50;99.90
4757;DHT22;2392;52.578;13.426;2023-09-12T04:15:15;18.50;99.90
4757;DHT22;2392;52.578;13.426;2023-09-12T04:17:44;18.50;99.90
4757;DHT22;2392;52.578;13.426;2023-09-12T04:20:11;18.50;99.90
4757;DHT22;2392;52.578;13.426;2023-09-12T04:22:41;18.40;99.90
4757;DHT22;2392;52.578;13.426;2023-09-12T04:25:08;18.40;99.90
4757;DHT22;2392;52.578;13.426;2023-09-12T04:27:35;18.40;99.90
4757;DHT22;2392;52.578;13.426;2023-09-12T04:30:05;18.40;99.90
4757;DHT22;2392;52.578;13.426;2023-09-12T04:32:34;18.40;99.90
4757;DHT22;2392;52.578;13.426;2023-09-12T04:35:03;18.30;99.90
4757;DHT22;2392;52.578;13.426;2023-09-12T04:37:30;18.30;99.90
4757;DHT22;2392;52.578;13.426;2023-09-12T04:39:57;18.30;99.90
4757;DHT22;2392;52.578;13.426;2023-09-12T04:42:24;18.30;99.90
4757;DHT22;2392;52.578;13.426;2023-09-12T04:44:51;18.30;99.90
4757;DHT22;2392;52.578;13.426;2023-09-12T04:47:18;18.40;99.90
4757;DHT22;2392;52.578;13.426;2023-09-12T04:49:47;18.40;99.90
4757;DHT22;2392;52.578;13.426;2023-09-12T04:52:15;18.40;99.90
4757;DHT22;2392;52.578;13.426;2023-09-12T04:54:42;18.50;99.90
4757;DHT22;2392;52.578;13.426;2023-09-12T04:57:10;18.50;99.90
4757;DHT22;2392;52.578;13.426;2023-09-12T04:59:37;18.50;99.90
4757;DHT22;2392;52.578;13.426;2023-09-12T05:02:07;18.60;99.90
4757;DHT22;2392;52.578;13.426;2023-09-12T05:04:34;18.60;99.90
4757;DHT22;2392;52.578;13.426;2023-09-12T05:07:01;18.50;99.90
4757;DHT22;2392;52.578;13.426;2023-09-12T05:09:30;18.50;99.90
4757;DHT22;2392;52.578;13.426;2023-09-12T05:11:57;18.50;99.90
4757;DHT22;2392;52.578;13.426;2023-09-12T05:14:24;18.50;99.90
4757;DHT22;2392;52.578;13.426;2023-09-12T05:16:52;18.50;99.90
4757;DHT22;2392;52.578;13.426;2023-09-12T05:19:26;18.60;99.90
4757;DHT22;2392;52.578;13.426;2023-09-12T05:21:53;18.60;99.90
4757;DHT22;2392;52.578;13.426;2023-09-12T05:24:20;18.70;99.90
4757;DHT22;2392;52.578;13.426;2023-09-12T05:26:48;18.70;99.90
4757;DHT22;2392;52.578;13.426;2023-09-12T05:29:16;18.70;99.90
4757;DHT22;2392;52.578;13.426;2023-09-12T05:31:43;18.70;99.90
4757;DHT22;2392;52.578;13.426;2023-09-12T05:34:10;18.80;99.90
4757;DHT22;2392;52.578;13.426;2023-09-12T05:36:37;18.80;99.90
4757;DHT22;2392;52.578;13.426;2023-09-12T05:39:04;18.80;99.90
4757;DHT22;2392;52.578;13.426;2023-09-12T05:41:31;18.90;99.90
4757;DHT22;2392;52.578;13.426;2023-09-12T05:44:00;18.90;99.90
4757;DHT22;2392;52.578;13.426;2023-09-12T05:46:27;18.90;99.90
4757;DHT22;2392;52.578;13.426;2023-09-12T05:48:54;18.90;99.90
4757;DHT22;2392;52.578;13.426;2023-09-12T05:51:21;18.90;99.90
4757;DHT22;2392;52.578;13.426;2023-09-12T05:53:48;19.00;99.90
4757;DHT22;2392;52.578;13.426;2023-09-12T05:56:15;19.10;99.90
4757;DHT22;2392;52.578;13.426;2023-09-12T05:58:42;19.10;99.90
4757;DHT22;2392;52.578;13.426;2023-09-12T06:01:11;19.20;99.90
4757;DHT22;2392;52.578;13.426;2023-09-12T06:03:38;19.20;99.90
4757;DHT22;2392;52.578;13.426;2023-09-12T06:06:05;19.20;99.90
4757;DHT22;2392;52.578;13.426;2023-09-12T06:08:32;19.30;99.90
4757;DHT22;2392;52.578;13.426;2023-09-12T06:10:59;19.30;99.90
4757;DHT22;2392;52.578;13.426;2023-09-12T06:13:26;19.40;99.90
4757;DHT22;2392;52.578;13.426;2023-09-12T06:15:53;19.40;99.90
4757;DHT22;2392;52.578;13.426;2023-09-12T06:18:21;19.50;99.90
4757;DHT22;2392;52.578;13.426;2023-09-12T06:20:49;19.60;99.90
4757;DHT22;2392;52.578;13.426;2023-09-12T06:23:16;19.60;99.90
4757;DHT22;2392;52.578;13.426;2023-09-12T06:25:43;19.70;99.90
4757;DHT22;2392;52.578;13.426;2023-09-12T06:28:10;19.80;99.90
4757;DHT22;2392;52.578;13.426;2023-09-12T06:30:37;19.80;99.90
4757;DHT22;2392;52.578;13.426;2023-09-12T06:33:04;19.90;99.90
4757;DHT22;2392;52.578;13.426;2023-09-12T06:35:33;20.00;99.90
4757;DHT22;2392;52.578;13.426;2023-09-12T06:38:00;20.20;99.90
4757;DHT22;2392;52.578;13.426;2023-09-12T06:40:27;20.20;99.90
4757;DHT22;2392;52.578;13.426;2023-09-12T06:42:54;20.40;99.90
4757;DHT22;2392;52.578;13.426;2023-09-12T06:45:21;20.40;99.90
4757;DHT22;2392;52.578;13.426;2023-09-12T06:47:48;20.50;99.90
4757;DHT22;2392;52.578;13.426;2023-09-12T06:50:15;20.60;99.90
4757;DHT22;2392;52.578;13.426;2023-09-12T06:52:46;20.70;99.90
4757;DHT22;2392;52.578;13.426;2023-09-12T06:55:13;20.80;99.90
4757;DHT22;2392;52.578;13.426;2023-09-12T06:57:40;20.90;99.90
4757;DHT22;2392;52.578;13.426;2023-09-12T07:00:08;21.00;99.90
4757;DHT22;2392;52.578;13.426;2023-09-12T07:02:36;21.10;99.90
4757;DHT22;2392;52.578;13.426;2023-09-12T07:05:04;21.20;99.90
4757;DHT22;2392;52.578;13.426;2023-09-12T07:07:32;21.30;99.90
4757;DHT22;2392;52.578;13.426;2023-09-12T07:10:01;21.30;99.90
4757;DHT22;2392;52.578;13.426;2023-09-12T07:12:29;21.50;99.90
4757;DHT22;2392;52.578;13.426;2023-09-12T07:14:58;21.60;99.90
4757;DHT22;2392;52.578;13.426;2023-09-12T07:17:27;21.70;99.90
4757;DHT22;2392;52.578;13.426;2023-09-12T07:19:54;21.70;99.90
4757;DHT22;2392;52.578;13.426;2023-09-12T07:22:21;21.90;99.90
4757;DHT22;2392;52.578;13.426;2023-09-12T07:24:48;22.00;99.90
4757;DHT22;2392;52.578;13.426;2023-09-12T07:27:17;22.10;99.90
4757;DHT22;2392;52.578;13.426;2023-09-12T07:29:44;22.30;99.90
4757;DHT22;2392;52.578;13.426;2023-09-12T07:32:11;22.40;99.90
4757;DHT22;2392;52.578;13.426;2023-09-12T07:34:38;22.40;99.90
4757;DHT22;2392;52.578;13.426;2023-09-12T07:37:07;22.50;99.90
4757;DHT22;2392;52.578;13.426;2023-09-12T07:39:34;22.60;99.90
4757;DHT22;2392;52.578;13.426;2023-09-12T07:42:00;22.60;99.90
4757;DHT22;2392;52.578;13.426;2023-09-12T07:44:30;22.70;99.90
4757;DHT22;2392;52.578;13.426;2023-09-12T07:46:56;22.90;99.90
4757;DHT22;2392;52.578;13.426;2023-09-12T07:49:24;22.90;99.90
4757;DHT22;2392;52.578;13.426;2023-09-12T07:51:52;23.10;99.90
4757;DHT22;2392;52.578;13.426;2023-09-12T07:54:19;23.20;99.90
4757;DHT22;2392;52.578;13.426;2023-09-12T07:56:46;23.30;99.90
4757;DHT22;2392;52.578;13.426;2023-09-12T07:59:13;23.40;99.90
4757;DHT22;2392;52.578;13.426;2023-09-12T08:01:42;23.40;99.90
4757;DHT22;2392;52.578;13.426;2023-09-12T08:04:09;23.50;99.90
4757;DHT22;2392;52.578;13.426;2023-09-12T08:06:36;23.60;99.90
4757;DHT22;2392;52.578;13.426;2023-09-12T08:09:03;23.60;99.90
4757;DHT22;2392;52.578;13.426;2023-09-12T08:11:30;23.70;99.90
4757;DHT22;2392;52.578;13.426;2023-09-12T08:13:57;23.80;99.90
4757;DHT22;2392;52.578;13.426;2023-09-12T08:16:24;23.90;99.90
4757;DHT22;2392;52.578;13.426;2023-09-12T08:18:52;24.00;99.90
4757;DHT22;2392;52.578;13.426;2023-09-12T08:21:19;24.10;99.90
4757;DHT22;2392;52.578;13.426;2023-09-12T08:23:46;24.10;99.90
4757;DHT22;2392;52.578;13.426;2023-09-12T08:26:14;24.20;99.90
4757;DHT22;2392;52.578;13.426;2023-09-12T08:28:41;24.30;99.90
4757;DHT22;2392;52.578;13.426;2023-09-12T08:31:07;24.30;99.90
4757;DHT22;2392;52.578;13.426;2023-09-12T08:33:34;24.40;99.90
4757;DHT22;2392;52.578;13.426;2023-09-12T08:36:03;24.40;99.90
4757;DHT22;2392;52.578;13.426;2023-09-12T08:38:30;24.50;99.90
4757;DHT22;2392;52.578;13.426;2023-09-12T08:40:57;24.50;99.90
4757;DHT22;2392;52.578;13.426;2023-09-12T08:43:25;24.50;99.90
4757;DHT22;2392;52.578;13.426;2023-09-12T08:45:52;24.60;99.90
4757;DHT22;2392;52.578;13.426;2023-09-12T08:48:21;24.70;99.90
4757;DHT22;2392;52.578;13.426;2023-09-12T08:50:50;24.90;99.90
4757;DHT22;2392;52.578;13.426;2023-09-12T08:53:19;25.00;99.90
4757;DHT22;2392;52.578;13.426;2023-09-12T08:55:48;25.10;99.90
4757;DHT22;2392;52.578;13.426;2023-09-12T08:58:18;25.20;99.90
4757;DHT22;2392;52.578;13.426;2023-09-12T09:00:52;25.40;99.90
4757;DHT22;2392;52.578;13.426;2023-09-12T09:03:19;25.60;99.90
4757;DHT22;2392;52.578;13.426;2023-09-12T09:05:48;25.70;99.90
4757;DHT22;2392;52.578;13.426;2023-09-12T09:08:20;25.80;99.90
4757;DHT22;2392;52.578;13.426;2023-09-12T09:10:57;25.90;99.90
4757;DHT22;2392;52.578;13.426;2023-09-12T09:13:28;26.00;99.90
4757;DHT22;2392;52.578;13.426;2023-09-12T09:16:12;26.10;99.90
4757;DHT22;2392;52.578;13.426;2023-09-12T09:18:53;26.30;99.90
4757;DHT22;2392;52.578;13.426;2023-09-12T09:21:23;26.40;99.90
4757;DHT22;2392;52.578;13.426;2023-09-12T09:23:55;26.50;99.90
4757;DHT22;2392;52.578;13.426;2023-09-12T09:26:23;26.70;99.90
4757;DHT22;2392;52.578;13.426;2023-09-12T09:29:03;26.80;99.90
4757;DHT22;2392;52.578;13.426;2023-09-12T09:31:31;26.90;99.90
4757;DHT22;2392;52.578;13.426;2023-09-12T09:34:00;27.00;99.90
4757;DHT22;2392;52.578;13.426;2023-09-12T09:36:28;27.10;99.90
4757;DHT22;2392;52.578;13.426;2023-09-12T09:38:58;27.20;99.90
4757;DHT22;2392;52.578;13.426;2023-09-12T09:41:26;27.20;99.90
4757;DHT22;2392;52.578;13.426;2023-09-12T09:43:54;27.30;99.90
4757;DHT22;2392;52.578;13.426;2023-09-12T09:46:22;27.40;99.90
4757;DHT22;2392;52.578;13.426;2023-09-12T09:48:49;27.40;99.90
4757;DHT22;2392;52.578;13.426;2023-09-12T09:51:17;27.50;99.90
4757;DHT22;2392;52.578;13.426;2023-09-12T09:53:45;27.60;99.90
4757;DHT22;2392;52.578;13.426;2023-09-12T09:56:15;27.90;99.90
4757;DHT22;2392;52.578;13.426;2023-09-12T09:58:46;28.30;99.90
4757;DHT22;2392;52.578;13.426;2023-09-12T10:01:18;29.00;99.50
4757;DHT22;2392;52.578;13.426;2023-09-12T10:03:46;29.80;98.40
4757;DHT22;2392;52.578;13.426;2023-09-12T10:06:16;30.40;97.90
4757;DHT22;2392;52.578;13.426;2023-09-12T10:08:45;31.00;97.20
4757;DHT22;2392;52.578;13.426;2023-09-12T10:11:15;31.70;95.90
4757;DHT22;2392;52.578;13.426;2023-09-12T10:13:49;32.40;95.10
4757;DHT22;2392;52.578;13.426;2023-09-12T10:16:22;33.00;94.10
4757;DHT22;2392;52.578;13.426;2023-09-12T10:18:58;33.50;93.10
4757;DHT22;2392;52.578;13.426;2023-09-12T10:21:29;34.10;92.20
4757;DHT22;2392;52.578;13.426;2023-09-12T10:23:59;34.90;91.60
4757;DHT22;2392;52.578;13.426;2023-09-12T10:26:31;35.50;90.30
4757;DHT22;2392;52.578;13.426;2023-09-12T10:28:59;36.20;89.90
4757;DHT22;2392;52.578;13.426;2023-09-12T10:31:29;36.70;87.90
4757;DHT22;2392;52.578;13.426;2023-09-12T10:33:57;37.10;86.00
4757;DHT22;2392;52.578;13.426;2023-09-12T10:36:26;37.60;84.30
4757;DHT22;2392;52.578;13.426;2023-09-12T10:38:55;38.20;83.10
4757;DHT22;2392;52.578;13.426;2023-09-12T10:41:24;38.90;80.80
4757;DHT22;2392;52.578;13.426;2023-09-12T10:43:54;39.50;79.10
4757;DHT22;2392;52.578;13.426;2023-09-12T10:46:22;39.90;77.10
4757;DHT22;2392;52.578;13.426;2023-09-12T10:48:50;39.90;75.90
4757;DHT22;2392;52.578;13.426;2023-09-12T10:51:19;40.00;75.00
4757;DHT22;2392;52.578;13.426;2023-09-12T10:53:47;40.20;73.50
4757;DHT22;2392;52.578;13.426;2023-09-12T10:56:17;40.20;73.50
4757;DHT22;2392;52.578;13.426;2023-09-12T10:59:12;40.50;73.10
4757;DHT22;2392;52.578;13.426;2023-09-12T11:01:44;40.10;72.10
4757;DHT22;2392;52.578;13.426;2023-09-12T11:04:32;40.20;72.00
4757;DHT22;2392;52.578;13.426;2023-09-12T11:07:01;40.50;72.10
4757;DHT22;2392;52.578;13.426;2023-09-12T11:09:29;40.40;71.20
4757;DHT22;2392;52.578;13.426;2023-09-12T11:11:58;40.70;71.10
4757;DHT22;2392;52.578;13.426;2023-09-12T11:14:27;40.50;70.00
4757;DHT22;2392;52.578;13.426;2023-09-12T11:17:20;40.60;70.70
4757;DHT22;2392;52.578;13.426;2023-09-12T11:19:49;40.60;69.10
4757;DHT22;2392;52.578;13.426;2023-09-12T11:22:23;41.00;69.70
4757;DHT22;2392;52.578;13.426;2023-09-12T11:24:52;41.10;69.50
4757;DHT22;2392;52.578;13.426;2023-09-12T11:27:23;41.10;68.70
4757;DHT22;2392;52.578;13.426;2023-09-12T11:29:52;40.50;68.70
4757;DHT22;2392;52.578;13.426;2023-09-12T11:32:30;40.10;68.60
4757;DHT22;2392;52.578;13.426;2023-09-12T11:34:59;39.80;69.70
4757;DHT22;2392;52.578;13.426;2023-09-12T11:37:32;39.60;69.80
4757;DHT22;2392;52.578;13.426;2023-09-12T11:40:01;39.10;70.00
4757;DHT22;2392;52.578;13.426;2023-09-12T11:42:29;38.70;70.60
4757;DHT22;2392;52.578;13.426;2023-09-12T11:44:58;38.30;71.00
4757;DHT22;2392;52.578;13.426;2023-09-12T11:47:26;37.70;71.60
4757;DHT22;2392;52.578;13.426;2023-09-12T11:49:54;37.20;72.50
4757;DHT22;2392;52.578;13.426;2023-09-12T11:52:22;36.60;73.10
4757;DHT22;2392;52.578;13.426;2023-09-12T11:54:49;35.70;74.00
4757;DHT22;2392;52.578;13.426;2023-09-12T11:57:16;35.00;75.50
4757;DHT22;2392;52.578;13.426;2023-09-12T11:59:44;34.50;76.80
4757;DHT22;2392;52.578;13.426;2023-09-12T12:02:15;34.30;77.70
4757;DHT22;2392;52.578;13.426;2023-09-12T12:04:43;33.90;78.30
4757;DHT22;2392;52.578;13.426;2023-09-12T12:07:11;33.60;79.00
4757;DHT22;2392;52.578;13.426;2023-09-12T12:09:38;33.30;79.60
4757;DHT22;2392;52.578;13.426;2023-09-12T12:12:13;32.90;80.00
4757;DHT22;2392;52.578;13.426;2023-09-12T12:14:41;32.50;81.20
4757;DHT22;2392;52.578;13.426;2023-09-12T12:17:11;32.20;82.00
4757;DHT22;2392;52.578;13.426;2023-09-12T12:19:45;31.90;82.10
4757;DHT22;2392;52.578;13.426;2023-09-12T12:22:12;31.80;82.80
4757;DHT22;2392;52.578;13.426;2023-09-12T12:24:42;31.70;83.20
4757;DHT22;2392;52.578;13.426;2023-09-12T12:27:09;31.60;83.50
4757;DHT22;2392;52.578;13.426;2023-09-12T12:29:40;31.50;83.30
4757;DHT22;2392;52.578;13.426;2023-09-12T12:32:14;31.50;83.50
4757;DHT22;2392;52.578;13.426;2023-09-12T12:34:48;31.50;83.30
4757;DHT22;2392;52.578;13.426;2023-09-12T12:37:16;31.60;83.30
4757;DHT22;2392;52.578;13.426;2023-09-12T12:39:44;31.70;83.10
4757;DHT22;2392;52.578;13.426;2023-09-12T12:42:11;31.80;83.40
4757;DHT22;2392;52.578;13.426;2023-09-12T12:44:39;31.80;82.70
4757;DHT22;2392;52.578;13.426;2023-09-12T12:47:08;31.70;82.50
4757;DHT22;2392;52.578;13.426;2023-09-12T12:49:37;31.70;83.30
4757;DHT22;2392;52.578;13.426;2023-09-12T12:52:11;31.80;83.10
4757;DHT22;2392;52.578;13.426;2023-09-12T12:54:38;31.60;82.80
4757;DHT22;2392;52.578;13.426;2023-09-12T12:57:05;31.60;84.00
4757;DHT22;2392;52.578;13.426;2023-09-12T12:59:35;31.30;83.00
4757;DHT22;2392;52.578;13.426;2023-09-12T13:02:04;31.20;83.80
4757;DHT22;2392;52.578;13.426;2023-09-12T13:04:36;31.10;83.60
4757;DHT22;2392;52.578;13.426;2023-09-12T13:07:09;31.10;85.20
4757;DHT22;2392;52.578;13.426;2023-09-12T13:09:38;31.10;85.00
4757;DHT22;2392;52.578;13.426;2023-09-12T13:12:06;31.20;84.40
4757;DHT22;2392;52.578;13.426;2023-09-12T13:14:35;31.20;84.20
4757;DHT22;2392;52.578;13.426;2023-09-12T13:17:05;31.20;84.20
4757;DHT22;2392;52.578;13.426;2023-09-12T13:19:32;31.20;83.80
4757;DHT22;2392;52.578;13.426;2023-09-12T13:22:00;31.30;84.10
4757;DHT22;2392;52.578;13.426;2023-09-12T13:24:30;31.20;83.50
4757;DHT22;2392;52.578;13.426;2023-09-12T13:26:58;31.30;83.00
4757;DHT22;2392;52.578;13.426;2023-09-12T13:29:25;31.30;83.50
4757;DHT22;2392;52.578;13.426;2023-09-12T13:31:53;31.40;83.20
4757;DHT22;2392;52.578;13.426;2023-09-12T13:34:20;31.30;83.10
4757;DHT22;2392;52.578;13.426;2023-09-12T13:36:47;31.30;83.80
4757;DHT22;2392;52.578;13.426;2023-09-12T13:39:14;31.30;83.30
4757;DHT22;2392;52.578;13.426;2023-09-12T13:41:44;31.30;84.20
4757;DHT22;2392;52.578;13.426;2023-09-12T13:44:12;31.20;83.50
4757;DHT22;2392;52.578;13.426;2023-09-12T13:46:40;31.20;83.70
4757;DHT22;2392;52.578;13.426;2023-09-12T13:49:10;31.30;83.00
4757;DHT22;2392;52.578;13.426;2023-09-12T13:51:38;31.40;83.00
4757;DHT22;2392;52.578;13.426;2023-09-12T13:54:06;31.40;82.90
4757;DHT22;2392;52.578;13.426;2023-09-12T13:56:40;31.40;82.90
4757;DHT22;2392;52.578;13.426;2023-09-12T13:59:08;31.40;83.30
4757;DHT22;2392;52.578;13.426;2023-09-12T14:01:37;31.40;83.00
4757;DHT22;2392;52.578;13.426;2023-09-12T14:04:04;31.40;83.00
4757;DHT22;2392;52.578;13.426;2023-09-12T14:06:33;31.30;82.40
4757;DHT22;2392;52.578;13.426;2023-09-12T14:09:01;31.30;82.20
4757;DHT22;2392;52.578;13.426;2023-09-12T14:11:28;31.20;82.90
4757;DHT22;2392;52.578;13.426;2023-09-12T14:13:55;31.20;83.30
4757;DHT22;2392;52.578;13.426;2023-09-12T14:16:24;31.10;83.60
4757;DHT22;2392;52.578;13.426;2023-09-12T14:18:51;31.00;83.90
4757;DHT22;2392;52.578;13.426;2023-09-12T14:21:19;30.90;84.20
4757;DHT22;2392;52.578;13.426;2023-09-12T14:23:47;30.80;84.20
4757;DHT22;2392;52.578;13.426;2023-09-12T14:26:18;30.80;84.40
4757;DHT22;2392;52.578;13.426;2023-09-12T14:28:45;30.70;84.70
4757;DHT22;2392;52.578;13.426;2023-09-12T14:31:13;30.80;83.80
4757;DHT22;2392;52.578;13.426;2023-09-12T14:33:43;30.70;84.10
4757;DHT22;2392;52.578;13.426;2023-09-12T14:36:11;30.70;83.70
4757;DHT22;2392;52.578;13.426;2023-09-12T14:38:39;30.70;84.20
4757;DHT22;2392;52.578;13.426;2023-09-12T14:41:06;30.70;85.00
4757;DHT22;2392;52.578;13.426;2023-09-12T14:43:33;30.70;86.80
4757;DHT22;2392;52.578;13.426;2023-09-12T14:46:01;30.60;88.20
4757;DHT22;2392;52.578;13.426;2023-09-12T14:48:29;30.40;88.80
4757;DHT22;2392;52.578;13.426;2023-09-12T14:51:01;30.20;89.70
4757;DHT22;2392;52.578;13.426;2023-09-12T14:53:29;29.90;90.00
4757;DHT22;2392;52.578;13.426;2023-09-12T14:55:57;29.70;90.40
4757;DHT22;2392;52.578;13.426;2023-09-12T14:58:25;29.40;90.80
4757;DHT22;2392;52.578;13.426;2023-09-12T15:00:55;29.10;91.40
4757;DHT22;2392;52.578;13.426;2023-09-12T15:03:23;28.90;91.90
4757;DHT22;2392;52.578;13.426;2023-09-12T15:05:51;28.40;92.50
4757;DHT22;2392;52.578;13.426;2023-09-12T15:08:20;28.10;92.90
4757;DHT22;2392;52.578;13.426;2023-09-12T15:10:48;27.90;93.30
4757;DHT22;2392;52.578;13.426;2023-09-12T15:13:15;27.80;93.50
4757;DHT22;2392;52.578;13.426;2023-09-12T15:15:45;27.80;93.70
4757;DHT22;2392;52.578;13.426;2023-09-12T15:18:12;27.70;93.80
4757;DHT22;2392;52.578;13.426;2023-09-12T15:20:40;27.70;94.00
4757;DHT22;2392;52.578;13.426;2023-09-12T15:23:07;27.60;94.10
4757;DHT22;2392;52.578;13.426;2023-09-12T15:25:36;27.50;94.10
4757;DHT22;2392;52.578;13.426;2023-09-12T15:28:03;27.50;94.30
4757;DHT22;2392;52.578;13.426;2023-09-12T15:30:31;27.40;94.20
4757;DHT22;2392;52.578;13.426;2023-09-12T15:32:59;27.40;94.40
4757;DHT22;2392;52.578;13.426;2023-09-12T15:35:30;27.30;94.50
4757;DHT22;2392;52.578;13.426;2023-09-12T15:37:58;27.20;94.20
4757;DHT22;2392;52.578;13.426;2023-09-12T15:40:26;27.10;94.20
4757;DHT22;2392;52.578;13.426;2023-09-12T15:42:55;27.00;94.20
4757;DHT22;2392;52.578;13.426;2023-09-12T15:45:23;26.90;94.00
4757;DHT22;2392;52.578;13.426;2023-09-12T15:47:51;26.80;93.90
4757;DHT22;2392;52.578;13.426;2023-09-12T15:50:19;26.70;94.00
4757;DHT22;2392;52.578;13.426;2023-09-12T15:52:46;26.60;94.10
4757;DHT22;2392;52.578;13.426;2023-09-12T15:55:15;26.60;94.20
4757;DHT22;2392;52.578;13.426;2023-09-12T15:57:43;26.60;94.20